Time;durP1;ratioP1;P1;durP2;ratioP2;P2;SDS_P1;SDS_P2;PMS_P1;PMS_P2;Temp;Humidity;BMP_temperature;BMP_pressure;BME280_temperature;BME280_humidity;BME280_pressure;Samples;Min_cycle;Max_cycle;Signal;HPM_P1;HPM_P2
2022/04/11 00:02:02;;;;;;;8.57;4.80;;;11.90;63.00;;;;;;4939519;29;20047;-83
2022/04/11 00:04:29;;;;;;;7.65;5.55;;;11.80;62.80;;;;;;4956160;28;20049;-83
2022/04/11 00:06:54;;;;;;;7.63;5.78;;;11.80;63.10;;;;;;4939365;29;20032;-84
2022/04/11 00:09:20;;;;;;;5.95;4.07;;;11.80;62.90;;;;;;4957402;28;20049;-83
2022/04/11 00:11:49;;;;;;;7.55;5.15;;;11.80;63.40;;;;;;4938882;28;20035;-79
2022/04/11 00:14:14;;;;;;;7.55;4.88;;;11.80;62.90;;;;;;4956184;28;20040;-83
2022/04/11 00:16:40;;;;;;;7.43;5.30;;;11.80;63.10;;;;;;4952807;28;20046;-83
2022/04/11 00:19:08;;;;;;;7.45;5.00;;;11.80;63.80;;;;;;4955784;28;20035;-81
2022/04/11 00:21:34;;;;;;;6.78;4.78;;;11.80;63.40;;;;;;4937395;29;20050;-83
2022/04/11 00:23:59;;;;;;;6.53;4.78;;;11.80;63.00;;;;;;4955428;28;20042;-82
2022/04/11 00:26:25;;;;;;;8.02;5.10;;;11.80;63.10;;;;;;4955082;28;20377;-82
2022/04/11 00:28:51;;;;;;;5.95;4.78;;;11.80;64.00;;;;;;4955897;29;20362;-83
2022/04/11 00:31:17;;;;;;;7.95;4.70;;;11.80;65.00;;;;;;4956407;28;20044;-82
2022/04/11 00:33:42;;;;;;;7.63;4.78;;;11.70;64.10;;;;;;4955812;28;20035;-82
2022/04/11 00:36:08;;;;;;;9.13;4.32;;;11.70;65.20;;;;;;4955219;28;20424;-82
2022/04/11 00:38:34;;;;;;;6.35;4.07;;;11.70;64.60;;;;;;4936327;29;20094;-82
2022/04/11 00:40:59;;;;;;;7.15;4.50;;;11.70;64.70;;;;;;4952429;29;20043;-81
2022/04/11 00:43:39;;;;;;;8.05;5.28;;;11.70;65.60;;;;;;4932981;29;20155;-82
2022/04/11 00:46:06;;;;;;;7.73;5.40;;;11.60;65.80;;;;;;4945420;29;20484;-82
2022/04/11 00:48:31;;;;;;;8.05;4.82;;;11.60;65.30;;;;;;4956295;28;20290;-80
2022/04/11 00:51:22;;;;;;;6.85;4.88;;;11.60;65.70;;;;;;4954917;29;20925;-81
2022/04/11 00:53:49;;;;;;;5.68;4.43;;;11.60;66.00;;;;;;4953978;29;20074;-81
2022/04/11 00:56:17;;;;;;;7.88;5.00;;;11.60;66.00;;;;;;4937875;29;20057;-80
2022/04/11 00:58:43;;;;;;;6.85;5.30;;;11.60;66.50;;;;;;4955188;28;20039;-81
2022/04/11 01:01:09;;;;;;;8.07;4.60;;;11.60;66.40;;;;;;4950427;28;20492;-76
2022/04/11 01:03:36;;;;;;;7.28;4.50;;;11.50;66.80;;;;;;4937812;29;20043;-76
2022/04/11 01:06:03;;;;;;;9.68;5.47;;;11.50;66.50;;;;;;4937664;29;20122;-75
2022/04/11 01:08:29;;;;;;;5.80;4.78;;;11.40;66.90;;;;;;4955394;28;20526;-75
2022/04/11 01:10:55;;;;;;;5.63;4.45;;;11.40;67.10;;;;;;4955786;28;20090;-76
2022/04/11 01:13:21;;;;;;;9.82;5.80;;;11.50;66.90;;;;;;4956253;28;20472;-76
2022/04/11 01:15:57;;;;;;;9.93;5.63;;;11.40;67.90;;;;;;4950927;28;20043;-76
2022/04/11 01:18:23;;;;;;;9.48;6.13;;;11.20;68.10;;;;;;4937917;29;20051;-75
2022/04/11 01:20:49;;;;;;;8.95;5.38;;;11.00;68.70;;;;;;4951752;28;20061;-76
2022/04/11 01:23:15;;;;;;;9.18;5.80;;;10.90;69.50;;;;;;4953346;28;20456;-75
2022/04/11 01:25:42;;;;;;;8.00;5.80;;;10.80;69.20;;;;;;4954014;28;20031;-75
2022/04/11 01:28:08;;;;;;;6.80;4.75;;;10.80;69.40;;;;;;4954134;28;20048;-77
2022/04/11 01:30:33;;;;;;;5.45;4.35;;;10.90;69.40;;;;;;4955474;28;20047;-76
2022/04/11 01:32:59;;;;;;;8.63;4.85;;;11.00;69.10;;;;;;4953823;28;20457;-76
2022/04/11 01:35:26;;;;;;;10.30;6.07;;;11.00;68.90;;;;;;4954511;28;20050;-77
2022/04/11 01:37:55;;;;;;;7.05;5.03;;;11.10;68.30;;;;;;4955174;28;20043;-76
2022/04/11 01:40:21;;;;;;;10.27;5.43;;;11.00;68.30;;;;;;4952431;28;20047;-76
2022/04/11 01:42:47;;;;;;;9.70;5.47;;;11.00;68.60;;;;;;4936506;29;20110;-76
2022/04/11 01:45:13;;;;;;;12.52;6.50;;;11.00;68.20;;;;;;4954500;28;20047;-76
2022/04/11 01:47:40;;;;;;;8.98;6.40;;;10.80;67.90;;;;;;4953602;28;20046;-74
2022/04/11 01:50:09;;;;;;;10.02;5.95;;;10.70;67.90;;;;;;4948126;28;20036;-75
2022/04/11 01:52:36;;;;;;;9.00;6.00;;;10.60;68.10;;;;;;4952248;28;20554;-75
2022/04/11 01:55:03;;;;;;;9.18;6.43;;;10.50;67.90;;;;;;4953882;28;20043;-78
2022/04/11 01:57:30;;;;;;;10.73;6.78;;;10.50;68.00;;;;;;4954420;29;20047;-79
2022/04/11 01:59:56;;;;;;;10.57;6.43;;;10.40;68.60;;;;;;4954062;28;20085;-79
2022/04/11 02:02:21;;;;;;;10.55;7.38;;;10.30;68.80;;;;;;4936559;29;20150;-76
2022/04/11 02:04:47;;;;;;;7.97;6.20;;;10.20;69.30;;;;;;4948422;29;20031;-77
2022/04/11 02:07:13;;;;;;;9.48;5.90;;;10.30;69.50;;;;;;4954365;28;20047;-77
2022/04/11 02:09:39;;;;;;;6.60;5.22;;;10.40;68.90;;;;;;4953367;28;20042;-77
2022/04/11 02:12:05;;;;;;;10.50;7.05;;;10.60;68.70;;;;;;4954244;28;20035;-76
2022/04/11 02:14:30;;;;;;;10.65;7.00;;;10.50;68.30;;;;;;4953536;28;20031;-76
2022/04/11 02:16:57;;;;;;;11.73;7.82;;;10.30;67.40;;;;;;4953494;28;20043;-76
2022/04/11 02:19:23;;;;;;;11.40;8.07;;;10.00;68.20;;;;;;4952004;28;20122;-75
2022/04/11 02:21:48;;;;;;;8.93;7.07;;;9.90;68.20;;;;;;4952187;29;20543;-76
2022/04/11 02:24:14;;;;;;;12.05;7.63;;;9.90;68.90;;;;;;4953419;28;20136;-75
2022/04/11 02:26:40;;;;;;;10.65;6.57;;;9.90;68.30;;;;;;4953910;28;20396;-76
2022/04/11 02:29:05;;;;;;;9.48;6.65;;;10.00;68.30;;;;;;4953490;28;20047;-78
2022/04/11 02:31:31;;;;;;;8.35;6.85;;;10.00;67.70;;;;;;4953069;28;20468;-78
2022/04/11 02:33:57;;;;;;;8.77;6.47;;;10.00;67.90;;;;;;4951722;28;20744;-77
2022/04/11 02:36:22;;;;;;;12.63;7.03;;;10.00;68.00;;;;;;4954206;28;20440;-77
2022/04/11 02:38:48;;;;;;;11.93;6.88;;;10.00;68.20;;;;;;4954642;28;20059;-74
2022/04/11 02:41:14;;;;;;;10.48;6.20;;;10.10;67.90;;;;;;4951481;28;20543;-75
2022/04/11 02:43:39;;;;;;;10.13;7.03;;;10.10;67.30;;;;;;4951577;28;20036;-75
2022/04/11 02:46:05;;;;;;;13.60;6.28;;;10.10;67.80;;;;;;4952252;28;20412;-74
2022/04/11 02:48:31;;;;;;;9.52;7.30;;;10.10;67.70;;;;;;4952388;28;20055;-75
2022/04/11 02:50:56;;;;;;;10.00;7.25;;;10.10;68.10;;;;;;4952421;28;20035;-75
2022/04/11 02:53:22;;;;;;;8.73;6.28;;;10.00;68.50;;;;;;4953351;28;20039;-76
2022/04/11 02:55:47;;;;;;;7.53;5.95;;;9.90;68.60;;;;;;4951455;28;20035;-76
2022/04/11 02:58:15;;;;;;;7.60;5.90;;;10.00;68.70;;;;;;4954046;28;22006;-79
2022/04/11 03:00:41;;;;;;;9.23;6.40;;;10.00;68.90;;;;;;4951138;28;20041;-80
2022/04/11 03:03:07;;;;;;;11.90;7.15;;;10.00;69.20;;;;;;4952533;28;20380;-78
2022/04/11 03:05:35;;;;;;;9.02;7.00;;;10.10;69.50;;;;;;4952359;28;20042;-79
2022/04/11 03:08:01;;;;;;;8.52;6.57;;;10.10;69.10;;;;;;4953040;28;20114;-79
2022/04/11 03:10:27;;;;;;;9.93;7.20;;;10.10;69.50;;;;;;4953152;28;20035;-79
2022/04/11 03:12:52;;;;;;;10.60;7.68;;;10.10;70.10;;;;;;4952857;28;20504;-80
2022/04/11 03:16:02;;;;;;;9.00;7.00;;;10.00;70.00;;;;;;4949803;28;20471;-79
2022/04/11 03:18:28;;;;;;;8.00;6.25;;;10.00;70.70;;;;;;4925416;29;20142;-80
2022/04/11 03:20:54;;;;;;;10.63;7.70;;;9.90;70.60;;;;;;4952475;28;20154;-80
2022/04/11 03:23:20;;;;;;;13.48;8.02;;;10.00;71.50;;;;;;4954434;29;20423;-79
2022/04/11 03:25:45;;;;;;;12.02;8.95;;;10.00;70.90;;;;;;4949933;28;20039;-78
2022/04/11 03:28:11;;;;;;;12.25;8.32;;;9.80;71.60;;;;;;4952723;29;20043;-78
2022/04/11 03:30:37;;;;;;;10.80;8.57;;;9.80;72.00;;;;;;4952099;28;20490;-78
2022/04/11 03:33:02;;;;;;;13.82;9.68;;;9.80;72.30;;;;;;4951873;29;20392;-78
2022/04/11 03:35:29;;;;;;;11.73;8.45;;;9.80;72.60;;;;;;4953202;29;20041;-78
2022/04/11 03:37:55;;;;;;;11.52;8.55;;;9.90;73.00;;;;;;4953575;29;20071;-79
2022/04/11 03:40:20;;;;;;;12.18;8.90;;;9.90;72.10;;;;;;4952645;28;20051;-80
2022/04/11 03:42:46;;;;;;;16.65;8.05;;;9.90;72.80;;;;;;4953319;28;20388;-81
2022/04/11 03:45:12;;;;;;;11.68;7.72;;;10.00;73.00;;;;;;4953394;28;20071;-81
2022/04/11 03:47:38;;;;;;;9.73;7.82;;;9.90;73.00;;;;;;4935281;28;20039;-80
2022/04/11 03:50:04;;;;;;;9.38;7.70;;;9.90;73.40;;;;;;4951170;29;20058;-80
2022/04/11 03:52:30;;;;;;;8.50;6.80;;;9.80;74.40;;;;;;4950660;29;20159;-81
2022/04/11 03:54:56;;;;;;;10.90;6.65;;;9.80;74.30;;;;;;4952213;28;20118;-80
2022/04/11 03:57:22;;;;;;;10.70;6.80;;;9.80;74.30;;;;;;4953585;28;20048;-80
2022/04/11 03:59:48;;;;;;;7.97;6.25;;;9.90;74.00;;;;;;4934767;29;20620;-80
2022/04/11 04:02:13;;;;;;;9.07;6.45;;;9.90;73.90;;;;;;4949530;28;20505;-80
2022/04/11 04:04:45;;;;;;;15.27;7.13;;;9.90;74.80;;;;;;4952145;28;20050;-78
2022/04/11 04:07:12;;;;;;;7.93;6.80;;;9.80;74.70;;;;;;4949375;28;20411;-79
2022/04/11 04:09:38;;;;;;;9.07;6.25;;;9.80;75.30;;;;;;4953146;28;20139;-81
2022/04/11 04:12:05;;;;;;;9.10;6.35;;;9.80;75.40;;;;;;4952940;28;20114;-80
2022/04/11 04:14:30;;;;;;;10.00;6.65;;;9.80;76.40;;;;;;4948861;28;20126;-80
2022/04/11 04:16:56;;;;;;;12.30;6.68;;;9.80;76.30;;;;;;4938638;29;20536;-79
2022/04/11 04:19:23;;;;;;;9.40;5.95;;;9.80;76.40;;;;;;4956902;28;20044;-80
2022/04/11 04:21:49;;;;;;;7.95;5.95;;;9.80;76.40;;;;;;4955789;28;20159;-81
2022/04/11 04:24:15;;;;;;;8.88;6.20;;;9.80;75.70;;;;;;4955981;28;20063;-80
2022/04/11 04:26:41;;;;;;;9.85;6.30;;;9.80;76.00;;;;;;4956568;28;20113;-79
2022/04/11 04:29:06;;;;;;;9.82;6.38;;;9.70;75.90;;;;;;4953899;28;20058;-80
2022/04/11 04:31:32;;;;;;;7.25;5.20;;;9.70;75.70;;;;;;4939513;29;20571;-80
2022/04/11 04:33:57;;;;;;;7.28;5.05;;;9.70;75.20;;;;;;4956651;29;20126;-79
2022/04/11 04:36:24;;;;;;;10.55;5.65;;;9.80;75.00;;;;;;4956593;28;20051;-80
2022/04/11 04:38:50;;;;;;;6.60;5.32;;;9.70;75.40;;;;;;4957016;28;20499;-79
2022/04/11 04:41:15;;;;;;;8.05;5.32;;;9.70;75.10;;;;;;4949032;29;20039;-79
2022/04/11 04:43:41;;;;;;;5.72;4.90;;;9.80;74.90;;;;;;4956157;29;20043;-80
2022/04/11 04:46:07;;;;;;;7.80;5.28;;;9.80;74.70;;;;;;4955835;28;20107;-80
2022/04/11 04:48:32;;;;;;;9.90;5.35;;;9.80;74.50;;;;;;4956206;28;20043;-80
2022/04/11 04:50:58;;;;;;;7.45;4.88;;;9.80;74.30;;;;;;4956641;29;20431;-80
2022/04/11 04:53:23;;;;;;;9.60;5.78;;;9.80;74.90;;;;;;4955901;28;20035;-80
2022/04/11 04:55:49;;;;;;;9.02;5.35;;;9.80;74.50;;;;;;4953287;28;20115;-79
2022/04/11 04:58:15;;;;;;;6.05;5.25;;;9.70;74.10;;;;;;4955488;29;20047;-79
2022/04/11 05:00:40;;;;;;;8.82;5.43;;;9.70;73.80;;;;;;4955643;28;20051;-74
2022/04/11 05:03:06;;;;;;;6.40;4.88;;;9.70;73.50;;;;;;4956148;28;20054;-74
2022/04/11 05:05:32;;;;;;;8.55;5.43;;;9.80;74.00;;;;;;4956277;28;20039;-74
2022/04/11 05:07:57;;;;;;;6.75;5.40;;;9.80;73.30;;;;;;4956157;29;20509;-79
2022/04/11 05:10:23;;;;;;;8.55;5.28;;;9.80;73.00;;;;;;4939388;29;20183;-80
2022/04/11 05:12:49;;;;;;;6.63;4.60;;;9.70;73.40;;;;;;4950461;28;20047;-80
2022/04/11 05:15:15;;;;;;;6.15;5.00;;;9.70;73.60;;;;;;4954951;28;20043;-80
2022/04/11 05:17:41;;;;;;;10.55;5.65;;;9.60;73.50;;;;;;4938168;29;20047;-79
2022/04/11 05:20:09;;;;;;;6.53;5.10;;;9.60;73.30;;;;;;4954542;28;20408;-80
2022/04/11 05:22:34;;;;;;;8.75;4.88;;;9.60;73.30;;;;;;4956087;29;20043;-80
2022/04/11 05:25:00;;;;;;;7.93;4.50;;;9.50;73.70;;;;;;4955131;28;20035;-79
2022/04/11 05:27:26;;;;;;;6.07;4.43;;;9.40;74.30;;;;;;4954615;29;20051;-79
2022/04/11 05:29:51;;;;;;;6.28;3.92;;;9.50;74.00;;;;;;4951975;28;20028;-80
2022/04/11 05:32:17;;;;;;;8.20;4.18;;;9.60;73.50;;;;;;4958459;28;20114;-74
2022/04/11 05:34:43;;;;;;;4.75;3.78;;;9.70;73.00;;;;;;4938483;29;20091;-74
2022/04/11 05:37:08;;;;;;;7.82;4.18;;;9.80;72.30;;;;;;4955282;28;20035;-73
2022/04/11 05:39:34;;;;;;;7.88;4.15;;;9.80;72.40;;;;;;4937853;29;20036;-73
2022/04/11 05:42:11;;;;;;;7.25;4.57;;;9.80;72.50;;;;;;4936703;28;20597;-75
2022/04/11 05:44:37;;;;;;;7.03;4.40;;;9.80;72.50;;;;;;4935719;29;20118;-75
2022/04/11 05:47:03;;;;;;;6.60;4.03;;;9.80;72.70;;;;;;4936587;28;20134;-75
2022/04/11 05:49:29;;;;;;;5.35;3.67;;;9.80;72.30;;;;;;4954086;28;20042;-75
2022/04/11 05:51:55;;;;;;;6.70;4.47;;;9.80;72.50;;;;;;4954173;28;20054;-75
2022/04/11 05:54:20;;;;;;;8.40;4.40;;;9.90;72.90;;;;;;4937835;29;20031;-75
2022/04/11 05:56:46;;;;;;;5.05;3.83;;;10.00;71.90;;;;;;4953451;28;20059;-74
2022/04/11 05:59:12;;;;;;;5.80;4.07;;;10.00;72.90;;;;;;4951023;28;20046;-80
2022/04/11 06:01:40;;;;;;;9.57;4.63;;;10.00;72.40;;;;;;4951487;28;20039;-81
2022/04/11 06:04:06;;;;;;;4.38;3.60;;;10.10;73.10;;;;;;4957970;28;20024;-81
2022/04/11 06:06:32;;;;;;;8.00;4.28;;;10.10;72.70;;;;;;4938083;28;20035;-80
2022/04/11 06:08:57;;;;;;;5.60;3.67;;;10.20;73.30;;;;;;4951424;29;20040;-80
2022/04/11 06:11:23;;;;;;;5.90;3.92;;;10.20;72.60;;;;;;4952201;28;20427;-80
2022/04/11 06:13:49;;;;;;;7.60;3.83;;;10.30;73.90;;;;;;4948769;28;20480;-80
2022/04/11 06:16:15;;;;;;;4.30;3.60;;;10.30;74.10;;;;;;4949900;29;20488;-80
2022/04/11 06:19:02;;;;;;;7.28;3.60;;;10.40;74.00;;;;;;4934092;28;20043;-80
2022/04/11 06:21:30;;;;;;;8.27;3.78;;;10.50;73.50;;;;;;4930658;29;20047;-77
2022/04/11 06:23:56;;;;;;;7.15;3.92;;;10.60;74.40;;;;;;4931714;29;20050;-77
2022/04/11 06:26:36;;;;;;;4.80;3.67;;;10.70;74.20;;;;;;4948506;28;20567;-75
2022/04/11 06:29:04;;;;;;;5.90;3.65;;;10.80;73.60;;;;;;4930566;28;20066;-75
2022/04/11 06:31:30;;;;;;;7.10;3.90;;;10.90;74.00;;;;;;4953963;28;20488;-75
2022/04/11 06:33:55;;;;;;;3.72;2.83;;;11.00;74.70;;;;;;4936249;29;20361;-75
2022/04/11 06:36:21;;;;;;;8.98;4.05;;;11.10;73.40;;;;;;4936022;29;20492;-77
2022/04/11 06:38:46;;;;;;;4.88;3.45;;;11.20;73.60;;;;;;4937382;29;20032;-81
2022/04/11 06:41:12;;;;;;;6.85;3.65;;;11.20;73.30;;;;;;4954083;28;20043;-82
2022/04/11 06:43:38;;;;;;;3.83;3.25;;;11.40;74.30;;;;;;4952954;28;20042;-74
2022/04/11 06:46:04;;;;;;;5.25;3.70;;;11.50;73.20;;;;;;4953307;28;20039;-75
2022/04/11 06:48:30;;;;;;;6.68;4.07;;;11.50;73.00;;;;;;4954480;28;20115;-74
2022/04/11 06:50:56;;;;;;;6.18;3.60;;;11.60;73.60;;;;;;4950874;28;20495;-75
2022/04/11 06:53:24;;;;;;;5.18;3.13;;;11.60;73.40;;;;;;4951926;28;20077;-75
2022/04/11 06:55:50;;;;;;;5.72;3.42;;;11.70;73.00;;;;;;4927187;29;20043;-75
2022/04/11 06:58:16;;;;;;;3.97;3.40;;;11.70;73.30;;;;;;4952822;28;20042;-76
2022/04/11 07:00:43;;;;;;;5.15;3.53;;;11.80;73.60;;;;;;4953173;28;20365;-75
2022/04/11 07:03:09;;;;;;;4.75;3.50;;;11.80;73.40;;;;;;4943603;29;20042;-75
2022/04/11 07:05:34;;;;;;;4.60;3.70;;;11.80;73.40;;;;;;4927257;29;20035;-76
2022/04/11 07:08:00;;;;;;;6.32;3.20;;;11.90;73.50;;;;;;4936241;29;20046;-75
2022/04/11 07:10:26;;;;;;;7.70;3.90;;;11.90;73.60;;;;;;4938002;29;20050;-76
2022/04/11 07:12:52;;;;;;;3.95;2.95;;;12.00;73.80;;;;;;4938086;29;20443;-75
2022/04/11 07:15:17;;;;;;;6.85;3.33;;;12.00;74.30;;;;;;4955506;28;20151;-76
2022/04/11 07:17:44;;;;;;;5.30;3.45;;;11.90;74.30;;;;;;4954361;28;20039;-76
2022/04/11 07:20:10;;;;;;;5.28;3.42;;;12.00;74.90;;;;;;4937565;28;20484;-75
2022/04/11 07:22:36;;;;;;;6.70;3.38;;;12.10;75.00;;;;;;4937970;29;20035;-80
2022/04/11 07:25:02;;;;;;;4.25;2.97;;;12.20;74.90;;;;;;4937725;28;20050;-81
2022/04/11 07:27:28;;;;;;;9.82;3.95;;;12.30;74.60;;;;;;4955311;28;20043;-82
2022/04/11 07:29:54;;;;;;;8.07;3.70;;;12.40;74.80;;;;;;4955535;28;20031;-80
2022/04/11 07:32:19;;;;;;;5.38;3.97;;;12.50;74.80;;;;;;4954895;28;20036;-76
2022/04/11 07:34:45;;;;;;;4.03;3.08;;;12.50;74.70;;;;;;4954827;28;20047;-76
2022/04/11 07:37:11;;;;;;;5.53;3.17;;;12.60;75.40;;;;;;4954293;28;20105;-75
2022/04/11 07:39:37;;;;;;;4.25;3.30;;;12.60;77.00;;;;;;4937220;29;20423;-76
2022/04/11 07:42:03;;;;;;;3.78;2.92;;;12.70;77.70;;;;;;4949875;28;20107;-76
2022/04/11 07:44:29;;;;;;;3.28;2.70;;;12.80;77.80;;;;;;4954238;28;20043;-75
2022/04/11 07:46:55;;;;;;;2.95;2.60;;;12.90;77.70;;;;;;4971896;28;20491;-76
2022/04/11 07:49:21;;;;;;;5.13;2.90;;;13.00;77.40;;;;;;4973142;28;20038;-75
2022/04/11 07:51:47;;;;;;;3.33;3.00;;;13.00;77.50;;;;;;4951557;28;20039;-80
2022/04/11 07:54:12;;;;;;;5.78;3.10;;;13.20;77.50;;;;;;4959098;28;20038;-80
2022/04/11 07:56:38;;;;;;;5.10;3.05;;;13.30;77.80;;;;;;4953979;29;20061;-81
2022/04/11 07:59:04;;;;;;;4.45;3.20;;;13.50;77.70;;;;;;4956208;29;20031;-81
2022/04/11 08:01:29;;;;;;;4.95;3.25;;;13.60;78.00;;;;;;4956373;28;20511;-79
2022/04/11 08:03:55;;;;;;;4.20;2.67;;;13.70;78.60;;;;;;4957003;28;20106;-79
2022/04/11 08:06:21;;;;;;;5.20;3.17;;;13.90;77.70;;;;;;4956461;28;20046;-79
2022/04/11 08:08:47;;;;;;;3.58;3.00;;;14.00;77.60;;;;;;4939853;29;20078;-79
2022/04/11 08:11:18;;;;;;;4.63;3.47;;;14.10;76.70;;;;;;4937863;29;20038;-79
2022/04/11 08:13:45;;;;;;;5.38;3.65;;;14.10;76.60;;;;;;4939861;29;20054;-79
2022/04/11 08:16:11;;;;;;;6.60;4.07;;;14.20;77.00;;;;;;4956390;29;20118;-80
2022/04/11 08:18:37;;;;;;;7.25;3.35;;;14.30;76.60;;;;;;4956822;29;20043;-79
2022/04/11 08:21:04;;;;;;;6.38;3.33;;;14.30;76.60;;;;;;4951557;29;20035;-77
2022/04/11 08:23:30;;;;;;;3.38;2.47;;;14.40;75.70;;;;;;4948528;28;20070;-78
2022/04/11 08:25:56;;;;;;;5.90;3.55;;;14.50;76.00;;;;;;4930492;28;20050;-78
2022/04/11 08:28:23;;;;;;;3.90;2.47;;;14.60;75.40;;;;;;4946622;28;20048;-79
2022/04/11 08:30:49;;;;;;;4.85;2.60;;;14.60;75.10;;;;;;4948599;28;20543;-78
2022/04/11 08:33:15;;;;;;;3.08;2.15;;;14.70;74.50;;;;;;4936945;29;20043;-78
2022/04/11 08:35:41;;;;;;;4.13;1.60;;;14.80;71.10;;;;;;4945987;28;20035;-79
2022/04/11 08:38:07;;;;;;;2.00;0.85;;;14.90;70.60;;;;;;4958237;28;20032;-79
2022/04/11 08:40:32;;;;;;;2.10;1.10;;;15.00;69.50;;;;;;4952994;28;20035;-79
2022/04/11 08:42:59;;;;;;;2.50;1.02;;;15.10;63.80;;;;;;4969940;28;20539;-79
2022/04/11 08:45:27;;;;;;;1.58;1.00;;;15.30;61.70;;;;;;4940275;28;20063;-79
2022/04/11 08:47:59;;;;;;;2.03;1.13;;;15.30;61.30;;;;;;4950723;28;20036;-79
2022/04/11 08:50:25;;;;;;;1.38;0.95;;;15.40;59.90;;;;;;4953065;28;20377;-77
2022/04/11 08:52:53;;;;;;;2.17;1.00;;;15.50;60.60;;;;;;4955238;28;20090;-77
2022/04/11 08:55:19;;;;;;;2.22;0.93;;;15.70;58.10;;;;;;4951288;28;20102;-79
2022/04/11 08:57:45;;;;;;;4.85;1.00;;;15.80;56.60;;;;;;4947317;28;20463;-79
2022/04/11 09:00:17;;;;;;;2.30;1.10;;;15.90;54.60;;;;;;4966102;28;20043;-79
2022/04/11 09:02:44;;;;;;;1.90;1.00;;;16.00;58.40;;;;;;4964202;28;20122;-78
2022/04/11 09:05:12;;;;;;;2.47;1.48;;;16.10;58.40;;;;;;4939093;28;20492;-78
2022/04/11 09:07:47;;;;;;;5.28;1.42;;;16.20;58.10;;;;;;4957350;28;20043;-79
2022/04/11 09:10:20;;;;;;;2.58;1.63;;;16.30;60.10;;;;;;4937860;29;20048;-79
2022/04/11 09:12:48;;;;;;;3.78;1.30;;;16.40;59.00;;;;;;4955420;28;20047;-78
2022/04/11 09:15:15;;;;;;;2.35;0.90;;;16.60;56.00;;;;;;4941514;28;20041;-78
2022/04/11 09:17:42;;;;;;;2.38;1.08;;;16.70;54.30;;;;;;4966553;28;20531;-80
2022/04/11 09:20:13;;;;;;;1.10;0.70;;;16.80;55.40;;;;;;4947614;28;20066;-77
2022/04/11 09:22:39;;;;;;;1.40;0.70;;;16.80;53.60;;;;;;4954250;28;20126;-78
2022/04/11 09:25:20;;;;;;;1.70;0.80;;;16.90;54.70;;;;;;4957817;28;20060;-78
2022/04/11 09:27:46;;;;;;;;;;;17.00;51.10;;;;;;4954566;28;20071;-79
2022/04/11 09:30:32;;;;;;;0.85;0.60;;;17.10;50.70;;;;;;4950391;28;19915;-78
2022/04/11 09:32:58;;;;;;;2.00;0.50;;;17.20;51.30;;;;;;4951899;28;20069;-78
2022/04/11 09:35:29;;;;;;;1.90;0.70;;;17.40;51.60;;;;;;4955469;28;20083;-78
2022/04/11 09:38:08;;;;;;;1.42;0.70;;;17.60;50.60;;;;;;4953644;28;20114;-78
2022/04/11 09:40:40;;;;;;;1.30;0.80;;;17.60;49.10;;;;;;4953365;28;21354;-78
2022/04/11 09:43:06;;;;;;;2.88;0.70;;;17.80;46.80;;;;;;4954874;28;20038;-78
2022/04/11 09:45:32;;;;;;;1.27;0.57;;;17.90;48.70;;;;;;4967642;28;20038;-78
2022/04/11 09:48:02;;;;;;;0.98;0.70;;;17.90;47.80;;;;;;4934415;28;20027;-79
2022/04/11 09:50:29;;;;;;;;;;;18.00;48.40;;;;;;4942970;29;20380;-79
2022/04/11 09:53:06;;;;;;;5.97;1.15;;;18.10;46.60;;;;;;4936426;28;19902;-79
2022/04/11 09:55:34;;;;;;;2.25;1.00;;;18.20;48.80;;;;;;4955812;28;20522;-78
2022/04/11 09:58:02;;;;;;;1.33;0.90;;;18.30;47.30;;;;;;4947022;28;20432;-79
2022/04/11 10:00:28;;;;;;;1.40;0.63;;;18.50;45.40;;;;;;4958884;28;20494;-77
2022/04/11 10:02:57;;;;;;;3.45;0.80;;;18.60;45.70;;;;;;4948787;28;20036;-77
2022/04/11 10:05:24;;;;;;;53.78;3.90;;;18.50;45.40;;;;;;4959789;28;20073;-77
2022/04/11 10:07:54;;;;;;;7.60;1.42;;;18.60;47.80;;;;;;4963510;28;20052;-78
2022/04/11 10:10:21;;;;;;;1.73;0.80;;;18.70;48.30;;;;;;4951199;28;20046;-78
2022/04/11 10:12:47;;;;;;;2.33;0.93;;;18.90;48.90;;;;;;4960306;28;20051;-78
2022/04/11 10:15:13;;;;;;;1.83;0.88;;;19.00;46.70;;;;;;4952902;28;20528;-78
2022/04/11 10:17:39;;;;;;;3.88;0.70;;;19.10;47.80;;;;;;4943169;28;20399;-77
2022/04/11 10:20:05;;;;;;;1.40;0.80;;;19.10;48.10;;;;;;4944822;28;20102;-77
2022/04/11 10:22:49;;;;;;;3.17;0.80;;;19.10;49.50;;;;;;4953316;28;20039;-77
2022/04/11 10:25:17;;;;;;;3.20;1.00;;;19.40;49.40;;;;;;4926768;28;20040;-77
2022/04/11 10:27:44;;;;;;;3.97;0.95;;;19.40;49.40;;;;;;4952178;28;20053;-78
2022/04/11 10:30:27;;;;;;;2.55;0.80;;;19.50;49.00;;;;;;4935129;28;20043;-79
2022/04/11 10:32:56;;;;;;;6.40;1.08;;;19.70;46.50;;;;;;4937288;28;20118;-76
2022/04/11 10:35:39;;;;;;;1.35;0.80;;;19.70;48.60;;;;;;4952987;28;20047;-76
2022/04/11 10:38:06;;;;;;;3.08;1.25;;;19.70;49.10;;;;;;4948280;28;20031;-76
2022/04/11 10:40:32;;;;;;;2.20;1.00;;;19.80;49.90;;;;;;4951758;28;20046;-76
2022/04/11 10:43:10;;;;;;;4.57;1.05;;;19.80;47.70;;;;;;4933996;28;20035;-82
2022/04/11 10:45:55;;;;;;;2.33;0.95;;;20.00;45.40;;;;;;4950884;28;20754;-76
2022/04/11 10:48:24;;;;;;;2.35;0.90;;;20.00;46.80;;;;;;4950030;28;20130;-76
2022/04/11 10:50:53;;;;;;;1.23;0.70;;;20.00;44.90;;;;;;4953093;28;20445;-76
2022/04/11 10:53:25;;;;;;;2.40;1.05;;;20.10;46.30;;;;;;4946422;28;20051;-76
2022/04/11 10:55:57;;;;;;;2.65;1.10;;;20.20;46.20;;;;;;4950451;28;20514;-76
2022/04/11 10:58:45;;;;;;;3.40;0.95;;;20.30;44.90;;;;;;4954508;28;20482;-77
2022/04/11 11:01:12;;;;;;;4.38;0.93;;;20.30;43.20;;;;;;4952805;28;20110;-77
2022/04/11 11:03:41;;;;;;;2.20;0.90;;;20.00;40.70;;;;;;4951664;28;20043;-76
2022/04/11 11:06:22;;;;;;;2.60;0.80;;;20.10;43.30;;;;;;4963419;28;20129;-76
2022/04/11 11:08:48;;;;;;;;;;;20.40;42.70;;;;;;4955135;28;20031;-76
2022/04/11 11:11:23;;;;;;;3.72;0.80;;;20.50;44.30;;;;;;4947482;28;19910;-77
2022/04/11 11:13:49;;;;;;;3.20;0.93;;;20.60;41.20;;;;;;4936441;29;20105;-77
2022/04/11 11:16:15;;;;;;;2.10;0.80;;;20.70;41.50;;;;;;4952020;28;20133;-76
2022/04/11 11:21:14;;;;;;;1.75;0.70;;;20.80;40.60;;;;;;4952759;28;20035;-77
2022/04/11 11:23:40;;;;;;;2.58;0.90;;;20.90;40.80;;;;;;4938670;29;20516;-76
2022/04/11 11:26:19;;;;;;;2.05;0.80;;;20.80;41.90;;;;;;4955818;28;20078;-76
2022/04/11 11:28:45;;;;;;;3.00;0.80;;;20.80;43.40;;;;;;4961707;28;20533;-76
2022/04/11 11:31:11;;;;;;;2.15;0.80;;;20.80;40.50;;;;;;4953556;28;20039;-77
2022/04/11 11:33:37;;;;;;;4.18;0.82;;;21.10;40.30;;;;;;4953252;28;20102;-77
2022/04/11 11:36:03;;;;;;;4.00;1.20;;;21.30;41.50;;;;;;4940750;29;20043;-77
2022/04/11 11:38:31;;;;;;;4.78;1.13;;;21.60;42.50;;;;;;4953188;29;20126;-76
2022/04/11 11:41:03;;;;;;;4.40;0.85;;;21.90;41.20;;;;;;4951388;29;20035;-76
2022/04/11 11:43:29;;;;;;;2.20;0.88;;;22.20;41.30;;;;;;4947892;28;20476;-76
2022/04/11 11:46:00;;;;;;;3.50;1.08;;;22.90;39.30;;;;;;4949008;28;20035;-76
2022/04/11 11:48:31;;;;;;;5.47;1.10;;;23.00;38.80;;;;;;4930183;29;20043;-76
2022/04/11 11:51:00;;;;;;;4.05;1.30;;;23.20;38.90;;;;;;4949286;28;20035;-76
2022/04/11 11:53:38;;;;;;;3.03;0.88;;;23.60;38.00;;;;;;4941061;29;20047;-76
2022/04/11 11:56:07;;;;;;;2.25;1.27;;;23.50;37.60;;;;;;4951128;29;20054;-76
2022/04/11 11:58:37;;;;;;;3.53;1.25;;;23.70;38.30;;;;;;4937747;29;20054;-76
2022/04/11 12:01:05;;;;;;;3.75;1.20;;;24.00;37.60;;;;;;4953418;28;20535;-78
2022/04/11 12:06:26;;;;;;;3.05;0.90;;;23.70;38.10;;;;;;4955473;28;20058;-80
2022/04/11 12:09:03;;;;;;;2.80;1.17;;;23.90;38.10;;;;;;4950308;28;20039;-79
2022/04/11 12:11:30;;;;;;;1.55;0.70;;;24.00;37.70;;;;;;4952555;28;20038;-79
2022/04/11 12:14:04;;;;;;;4.53;1.17;;;24.10;36.20;;;;;;4932289;29;20066;-79
2022/04/11 12:16:32;;;;;;;5.75;1.45;;;24.00;37.70;;;;;;4945448;29;20035;-79
2022/04/11 12:19:00;;;;;;;3.60;1.27;;;23.90;37.00;;;;;;4946700;29;20119;-79
2022/04/11 12:21:34;;;;;;;2.95;0.90;;;23.80;36.30;;;;;;4944170;28;20385;-78
2022/04/11 12:24:03;;;;;;;3.38;1.20;;;23.90;36.30;;;;;;4946007;29;20110;-79
2022/04/11 12:26:33;;;;;;;3.00;1.10;;;23.90;35.00;;;;;;4952463;28;20035;-78
2022/04/11 12:29:08;;;;;;;3.38;1.00;;;23.90;35.60;;;;;;4945075;29;20039;-79
2022/04/11 12:31:34;;;;;;;3.55;0.88;;;24.00;35.60;;;;;;4953195;29;20058;-79
2022/04/11 12:34:10;;;;;;;3.50;1.10;;;24.10;35.50;;;;;;4953618;28;20043;-79
2022/04/11 12:36:36;;;;;;;10.10;1.30;;;23.90;34.00;;;;;;4947150;28;20040;-84
2022/04/11 12:39:13;;;;;;;3.88;1.27;;;24.10;34.00;;;;;;4949169;28;20142;-80
2022/04/11 12:41:47;;;;;;;7.03;1.42;;;24.00;35.00;;;;;;4954622;28;20638;-81
2022/04/11 12:44:12;;;;;;;4.72;1.40;;;24.10;36.10;;;;;;4954873;28;20397;-78
2022/04/11 12:46:44;;;;;;;5.25;1.35;;;23.70;37.60;;;;;;4942059;29;20044;-78
2022/04/11 12:49:13;;;;;;;2.63;1.05;;;24.00;36.20;;;;;;4952764;29;20028;-78
2022/04/11 12:51:39;;;;;;;5.32;1.00;;;23.60;36.30;;;;;;4945005;28;20067;-79
2022/04/11 12:54:13;;;;;;;3.42;1.30;;;23.30;37.30;;;;;;4956478;28;20039;-78
2022/04/11 12:56:51;;;;;;;4.78;1.55;;;23.70;37.10;;;;;;4955956;28;20035;-79